Flight Track Log - Related Links

Times and Time Zones

All times are in EDT time to prevent confusion due to time zone crossing. See the N839CA flight status page for this flight to view local times or setup timezone preferences in your user account.

Time Position Orientation Groundspeed Altitude Reporting Facility
EDT Latitude Longitude Course Direction KTS MPH feet Rate Location/Type
Mon 07:33:33 PM 42.9333 -78.7333 160° South 128 147 1,500  Level Buffalo TRACON
Mon 07:34:33 PM 42.9000 -78.7167 160° South 185 213 2,800 1,357 Climbing Buffalo TRACON
Mon 07:36:21 PM 42.8953 -78.5853 93° East 225 259 5,300 1,286 Climbing Cleveland Center
Mon 07:37:21 PM 42.8897 -78.5061 95° East 216 249 6,400 1,400 Climbing Cleveland Center
Mon 07:38:21 PM 42.8817 -78.4128 97° East 216 249 8,100 1,550 Climbing Cleveland Center
Mon 07:39:21 PM 42.8758 -78.3281 95° East 216 249 9,500 1,250 Climbing Cleveland Center
Mon 07:40:21 PM 42.8703 -78.2544 96° East 216 249 10,600 1,150 Climbing Cleveland Center
Mon 07:41:21 PM 42.8644 -78.1669 95° East 216 249 11,800 1,150 Climbing Cleveland Center
Mon 07:42:21 PM 42.8439 -78.0856 109° East 216 249 12,900 1,200 Climbing Cleveland Center
Mon 07:43:21 PM 42.8211 -77.9958 109° East 227 261 14,200 1,100 Climbing Cleveland Center
Mon 07:44:21 PM 42.7983 -77.9119 110° East 227 261 15,100 450 Climbing Cleveland Center
Mon 07:45:21 PM 42.7731 -77.8197 110° East 243 280 15,100 -50 Level Cleveland Center
Mon 07:46:21 PM 42.7436 -77.7164 111° Southeast 266 306 15,000 -50 Descending Cleveland Center
Mon 07:47:21 PM 42.7136 -77.6047 110° East 278 320 15,000  Level Cleveland Center
Mon 07:49:18 PM 42.6622 -77.4100 110° East 299 344 15,000  Level New York Center
Mon 07:50:19 PM 42.6328 -77.3025 110° East 299 344 15,000  Level New York Center
Mon 07:51:19 PM 42.6053 -77.1983 110° East 299 344 15,000  Level New York Center
Mon 07:52:19 PM 42.5756 -77.0914 111° Southeast 299 344 15,000 -50 Level New York Center
Mon 07:53:20 PM 42.5456 -76.9869 111° Southeast 299 344 14,900  Descending New York Center
Mon 07:54:17 PM 42.5158 -76.8800 111° Southeast 299 344 15,000 51 Climbing New York Center
Mon 07:55:17 PM 42.4875 -76.7792 111° Southeast 294 338 15,000  Level New York Center
Mon 07:56:20 PM 42.4533 -76.6617 111° Southeast 292 336 15,000  Level Boston Center
Mon 07:57:20 PM 42.4236 -76.5583 111° Southeast 302 348 15,000  Level Boston Center
Mon 07:58:20 PM 42.3942 -76.4522 111° Southeast 297 342 15,000 50 Level Boston Center
Mon 07:59:20 PM 42.3642 -76.3519 112° Southeast 297 342 15,100  Climbing Boston Center
Mon 08:00:20 PM 42.3344 -76.2461 111° Southeast 297 342 15,000 -50 Descending Boston Center
Mon 08:01:20 PM 42.3086 -76.1492 110° East 297 342 15,000 -50 Level Boston Center
Mon 08:02:20 PM 42.2769 -76.0322 110° East 297 342 14,900  Descending Boston Center
Mon 08:03:20 PM 42.2447 -75.9264 112° Southeast 297 342 15,000 50 Climbing Boston Center
Mon 08:04:20 PM 42.2164 -75.8239 110° East 297 342 15,000  Level Boston Center
Mon 08:05:20 PM 42.1842 -75.7186 112° Southeast 297 342 15,000  Level Boston Center
Mon 08:06:20 PM 42.1536 -75.6161 112° Southeast 297 342 15,000 -50 Level Boston Center
Mon 08:07:20 PM 42.1211 -75.5108 113° Southeast 297 342 14,900  Descending Boston Center
Mon 08:08:20 PM 42.0908 -75.4031 111° Southeast 297 342 15,000 50 Climbing Boston Center
Mon 08:09:20 PM 42.0600 -75.3008 112° Southeast 297 342 15,000  Level Boston Center
Mon 08:10:32 PM 42.0228 -75.2042 117° Southeast 297 342 15,000  Level Boston Center
Mon 08:11:32 PM 41.9756 -75.0819 117° Southeast 302 348 15,000  Level Boston Center
Mon 08:12:32 PM 41.9364 -74.9825 118° Southeast 307 353 15,000 -300 Level Boston Center
Mon 08:13:32 PM 41.8989 -74.8864 118° Southeast 307 353 14,400 -800 Descending Boston Center
Mon 08:14:32 PM 41.8250 -74.8306 151° Southeast 296 341 13,400 -1,200 Descending Boston Center
Mon 08:15:32 PM 41.7486 -74.7858 156° South 296 341 12,000 -1,800 Descending Boston Center
Mon 08:16:32 PM 41.6747 -74.7414 156° South 296 341 9,800 -2,350 Descending Boston Center
Mon 08:17:32 PM 41.6025 -74.7028 158° South 285 328 7,300 -1,500 Descending Boston Center
Mon 08:18:32 PM 41.5325 -74.6614 156° South 285 328 6,800 -550 Descending Boston Center
Mon 08:19:32 PM 41.4583 -74.6172 156° South 290 334 6,200 -348 Descending Boston Center
Mon 08:21:07 PM 41.3333 -74.6000 174° South 271 312 5,900 -121 Descending New York TRACON
Mon 08:22:01 PM 41.2667 -74.5833 169° South 274 315 5,900 50 Level New York TRACON
Mon 08:23:07 PM 41.1833 -74.5833 180° South 277 319 6,000 48 Climbing New York TRACON
Mon 08:24:07 PM 41.1000 -74.5667 171° South 282 325 6,000  Level New York TRACON
Mon 08:25:07 PM 41.0500 -74.5167 143° Southeast 284 327 6,000  Level New York TRACON
Mon 08:26:01 PM 40.9833 -74.4833 159° South 288 331 6,000 -52 Level New York TRACON
Mon 08:27:02 PM 40.9167 -74.5333 210° Southwest 270 311 5,900 -450 Descending New York TRACON
Mon 08:28:01 PM 40.8500 -74.5667 201° Southwest 265 305 5,100 -454 Descending New York TRACON
Mon 08:29:01 PM 40.7833 -74.5833 191° South 273 314 5,000 -50 Descending New York TRACON
Mon 08:30:02 PM 40.7000 -74.5667 171° South 272 313 5,000  Level New York TRACON
Mon 08:31:01 PM 40.6333 -74.5500 169° South 272 313 5,000  Level New York TRACON
Mon 08:32:01 PM 40.5500 -74.5500 180° South 270 311 5,000  Level New York TRACON
Mon 08:33:07 PM 40.4667 -74.5667 189° South 273 314 5,000  Level New York TRACON
Mon 08:34:01 PM 40.4000 -74.5833 191° South 247 284 5,000 -500 Level New York TRACON
Mon 08:35:07 PM 40.3500 -74.5167 135° Southeast 247 284 4,000 -714 Descending New York TRACON
Mon 08:36:07 PM 40.3167 -74.4500 123° Southeast 228 262 3,500 -500 Descending New York TRACON
Mon 08:37:07 PM 40.3000 -74.3833 108° East 223 257 3,000 -250 Descending New York TRACON
Mon 08:38:07 PM 40.3500 -74.3667 14° North 184 212 3,000  Level New York TRACON
Mon 08:39:02 PM 40.4000 -74.3500 14° North 176 203 3,000  Level New York TRACON
Mon 08:40:02 PM 40.4333 -74.3167 37° Northeast 174 200 3,000 -48 Level New York TRACON
Mon 08:41:08 PM 40.4833 -74.3000 14° North 177 204 2,900 -91 Descending New York TRACON

Login

Don't have an account? Register now (free) for customized features, flight alerts, and more!